Time;durP1;ratioP1;P1;durP2;ratioP2;P2;SDS_P1;SDS_P2;PMS_P1;PMS_P2;Temp;Humidity;BMP_temperature;BMP_pressure;BME280_temperature;BME280_humidity;BME280_pressure;Samples;Min_cycle;Max_cycle;Signal;HPM_P1;HPM_P2
2021/01/02 00:00:51;;;;;;;3.65;3.45;;;;;;;0.95;86.02;99919.59;5035582;28;20049;-64
2021/01/02 00:03:38;;;;;;;3.70;3.50;;;;;;;0.91;86.18;99912.75;5035987;28;20046;-64
2021/01/02 00:06:09;;;;;;;3.40;3.20;;;;;;;0.94;86.04;99917.88;5035546;28;20042;-65
2021/01/02 00:08:38;;;;;;;3.70;3.50;;;;;;;0.93;86.23;99910.16;5035680;28;20460;-65
2021/01/02 00:11:21;;;;;;;3.80;3.60;;;;;;;0.97;86.42;99906.69;5035442;28;20574;-65
2021/01/02 00:14:14;;;;;;;3.58;3.38;;;;;;;0.99;86.20;99905.81;5044786;28;20049;-64
2021/01/02 00:17:02;;;;;;;3.40;3.22;;;;;;;1.02;86.06;99910.94;5052893;28;20056;-64
2021/01/02 00:19:48;;;;;;;4.00;3.80;;;;;;;1.02;86.20;99910.09;5055319;28;20049;-63
2021/01/02 00:22:29;;;;;;;3.35;3.15;;;;;;;1.01;86.08;99908.38;5055967;28;20052;-64
2021/01/02 00:24:56;;;;;;;3.85;3.65;;;;;;;1.00;86.23;99906.66;5055988;28;20537;-64
2021/01/02 00:27:27;;;;;;;3.80;3.60;;;;;;;1.04;86.42;99914.41;5055676;28;20047;-64
2021/01/02 00:30:06;;;;;;;3.85;3.65;;;;;;;1.08;86.22;99916.09;5055549;28;20048;-63
2021/01/02 00:32:45;;;;;;;3.63;3.42;;;;;;;1.09;86.32;99916.97;5054631;28;20390;-65
2021/01/02 00:35:16;;;;;;;4.03;3.83;;;;;;;1.12;86.35;99922.09;5055463;28;20053;-63
2021/01/02 00:37:45;;;;;;;3.58;3.38;;;;;;;1.14;86.17;99928.13;5055560;28;20484;-63
2021/01/02 00:40:13;;;;;;;3.90;3.70;;;;;;;1.12;86.03;99924.69;5055385;28;20045;-64
2021/01/02 00:42:41;;;;;;;3.70;3.50;;;;;;;1.12;86.09;99929.84;5054919;28;20094;-65
2021/01/02 00:45:09;;;;;;;3.78;3.58;;;;;;;1.14;86.18;99938.44;5055356;28;20045;-64
2021/01/02 00:47:37;;;;;;;3.60;3.40;;;;;;;1.17;86.33;99936.69;5052322;28;20056;-64
2021/01/02 00:50:04;;;;;;;3.67;3.47;;;;;;;1.19;86.31;99926.34;5055253;28;20132;-65
2021/01/02 00:52:52;;;;;;;3.33;3.17;;;;;;;1.22;85.99;99918.59;5055203;28;20049;-64
2021/01/02 00:56:00;;;;;;;3.40;3.20;;;;;;;1.21;85.97;99922.88;5055113;28;20045;-64
2021/01/02 00:59:10;;;;;;;3.88;3.67;;;;;;;1.21;85.88;99927.19;4993072;28;20433;-64
2021/01/02 01:01:44;;;;;;;3.97;3.78;;;;;;;1.25;86.20;99928.03;4993012;28;20482;-64
2021/01/02 01:04:32;;;;;;;3.60;3.40;;;;;;;1.26;86.07;99924.63;5041883;28;20094;-64
2021/01/02 01:07:00;;;;;;;3.65;3.45;;;;;;;1.27;85.91;99931.50;5054117;28;20488;-63
2021/01/02 01:09:27;;;;;;;3.85;3.65;;;;;;;1.22;85.94;99934.06;5053214;28;20060;-64
2021/01/02 01:11:55;;;;;;;3.47;3.28;;;;;;;1.22;85.85;99931.50;5054362;28;20041;-63
2021/01/02 01:14:22;;;;;;;3.72;3.53;;;;;;;1.22;85.82;99928.91;5040519;28;20051;-63
2021/01/02 01:16:58;;;;;;;3.97;3.78;;;;;;;1.22;86.05;99934.06;5044037;28;20536;-64
2021/01/02 01:19:29;;;;;;;3.80;3.60;;;;;;;1.25;86.20;99934.09;5051471;28;20049;-64
2021/01/02 01:21:58;;;;;;;3.63;3.42;;;;;;;1.26;86.07;99935.81;5048907;28;20094;-65
2021/01/02 01:24:38;;;;;;;3.63;3.42;;;;;;;1.28;85.86;99936.66;5039501;28;20049;-64
2021/01/02 01:27:11;;;;;;;3.55;3.35;;;;;;;1.27;86.04;99927.19;5043403;28;20128;-64
2021/01/02 01:29:42;;;;;;;4.00;3.80;;;;;;;1.25;86.02;99931.50;5050925;28;20044;-64
2021/01/02 01:32:09;;;;;;;3.10;3.00;;;;;;;1.29;85.99;99940.94;5053069;28;20128;-63
2021/01/02 01:34:36;;;;;;;3.65;3.45;;;;;;;1.28;85.90;99946.97;5053931;28;20045;-64
2021/01/02 01:37:04;;;;;;;3.38;3.20;;;;;;;1.29;86.27;99943.53;5053378;28;20041;-63
2021/01/02 01:39:33;;;;;;;3.50;3.30;;;;;;;1.28;86.00;99944.41;5054000;28;20052;-64
2021/01/02 01:42:01;;;;;;;3.20;3.10;;;;;;;1.26;85.96;99946.13;5054138;28;20055;-64
2021/01/02 01:44:44;;;;;;;3.92;3.72;;;;;;;1.26;86.12;99946.13;5054213;28;20095;-63
2021/01/02 01:47:16;;;;;;;3.85;3.65;;;;;;;1.24;85.91;99953.00;5053950;28;20132;-64
2021/01/02 01:50:14;;;;;;;4.22;4.03;;;;;;;1.21;86.10;99953.88;5053997;28;20081;-64
2021/01/02 01:53:28;;;;;;;3.60;3.40;;;;;;;1.22;86.05;99958.19;5053994;28;20052;-64
2021/01/02 01:56:14;;;;;;;3.45;3.25;;;;;;;1.18;86.16;99959.06;5053511;28;20053;-65
2021/01/02 01:59:29;;;;;;;3.22;3.10;;;;;;;1.21;86.21;99958.19;5053842;28;20084;-65
2021/01/02 02:01:56;;;;;;;3.33;3.13;;;;;;;1.20;86.15;99957.31;5053518;28;20517;-65
2021/01/02 02:04:52;;;;;;;3.67;3.47;;;;;;;1.22;86.14;99949.56;5036504;28;20156;-64
2021/01/02 02:07:20;;;;;;;4.10;3.90;;;;;;;1.26;86.27;99951.28;5028248;28;20053;-64
2021/01/02 02:10:00;;;;;;;3.67;3.47;;;;;;;1.24;86.28;99950.41;5033275;28;20049;-64
2021/01/02 02:12:32;;;;;;;4.00;3.80;;;;;;;1.23;85.96;99951.28;5033905;28;20057;-64
2021/01/02 02:15:10;;;;;;;4.10;3.90;;;;;;;1.19;86.21;99949.59;5033854;28;20453;-63
2021/01/02 02:17:45;;;;;;;3.92;3.72;;;;;;;1.15;85.98;99946.19;5033828;28;20053;-64
2021/01/02 02:20:15;;;;;;;3.53;3.33;;;;;;;1.12;85.98;99947.91;5033185;28;20570;-63
2021/01/02 02:22:42;;;;;;;3.63;3.42;;;;;;;1.15;86.17;99959.09;5032809;28;20046;-64
2021/01/02 02:25:11;;;;;;;3.40;3.20;;;;;;;1.17;86.33;99951.31;5033372;28;20051;-64
2021/01/02 02:27:40;;;;;;;3.85;3.65;;;;;;;1.20;86.10;99953.88;5031415;28;20485;-64
2021/01/02 02:30:10;;;;;;;3.55;3.35;;;;;;;1.19;86.12;99950.44;5035124;28;20629;-64
2021/01/02 02:32:39;;;;;;;3.40;3.20;;;;;;;1.18;86.05;99947.88;5038457;28;20045;-64
2021/01/02 02:35:08;;;;;;;3.78;3.58;;;;;;;1.18;85.89;99947.88;5037670;28;20046;-64
2021/01/02 02:37:38;;;;;;;3.75;3.55;;;;;;;1.17;86.01;99946.16;5033319;28;20528;-63
2021/01/02 02:40:07;;;;;;;3.50;3.30;;;;;;;1.16;86.08;99952.19;5031395;28;20041;-64
2021/01/02 02:42:37;;;;;;;3.65;3.45;;;;;;;1.17;85.82;99953.91;5033995;28;20440;-64
2021/01/02 02:45:09;;;;;;;3.60;3.40;;;;;;;1.15;85.92;99963.38;5032898;28;20569;-64
2021/01/02 02:47:39;;;;;;;3.60;3.40;;;;;;;1.15;85.97;99961.66;5032927;28;20046;-64
2021/01/02 02:50:16;;;;;;;3.20;3.10;;;;;;;1.14;86.21;99956.50;5033007;28;20041;-65
2021/01/02 02:52:44;;;;;;;3.83;3.63;;;;;;;1.16;86.16;99954.78;5032669;28;20057;-65
2021/01/02 02:55:10;;;;;;;3.67;3.47;;;;;;;1.15;85.99;99955.66;5033035;28;20061;-65
2021/01/02 02:57:47;;;;;;;4.00;3.80;;;;;;;1.14;86.00;99952.22;5033286;28;20053;-64
2021/01/02 03:00:16;;;;;;;3.30;3.15;;;;;;;1.14;86.24;99951.34;5032959;28;20060;-64
2021/01/02 03:02:46;;;;;;;3.65;3.45;;;;;;;1.14;86.13;99948.75;5032114;28;20132;-64
2021/01/02 03:05:14;;;;;;;4.00;3.80;;;;;;;1.13;86.00;99945.31;5031863;28;20046;-64
2021/01/02 03:07:42;;;;;;;3.70;3.50;;;;;;;1.13;86.17;99953.06;5032152;28;20057;-65
2021/01/02 03:10:10;;;;;;;3.42;3.22;;;;;;;1.12;86.03;99947.91;5032693;28;20052;-63
2021/01/02 03:12:41;;;;;;;3.50;3.30;;;;;;;1.09;86.08;99942.78;5038136;28;20068;-64
2021/01/02 03:15:08;;;;;;;4.03;3.83;;;;;;;1.14;86.32;99947.03;5051350;28;20056;-65
2021/01/02 03:17:35;;;;;;;3.65;3.45;;;;;;;1.16;86.07;99945.31;5046363;28;20045;-64
2021/01/02 03:20:02;;;;;;;3.95;3.65;;;;;;;1.19;86.22;99949.59;5051384;28;20041;-63
2021/01/02 03:22:28;;;;;;;3.45;3.25;;;;;;;1.20;85.95;99949.59;5051797;28;20049;-64
2021/01/02 03:24:54;;;;;;;3.90;3.70;;;;;;;1.19;85.93;99941.84;5052415;28;20049;-65
2021/01/02 03:27:21;;;;;;;3.83;3.63;;;;;;;1.19;85.97;99950.44;5052618;28;20057;-64
2021/01/02 03:29:47;;;;;;;3.95;3.75;;;;;;;1.19;85.98;99949.59;5051297;28;20047;-64
2021/01/02 03:32:13;;;;;;;3.67;3.47;;;;;;;1.19;86.01;99957.34;5048805;28;20132;-64
2021/01/02 03:34:41;;;;;;;3.70;3.50;;;;;;;1.19;86.11;99952.16;5051140;28;20044;-64
2021/01/02 03:37:08;;;;;;;4.03;3.83;;;;;;;1.16;86.04;99958.22;5051180;28;20080;-64
2021/01/02 03:39:34;;;;;;;3.63;3.42;;;;;;;1.16;85.90;99954.78;5051820;28;20059;-64
2021/01/02 03:42:00;;;;;;;3.72;3.53;;;;;;;1.13;85.96;99949.63;5052194;28;20538;-65
2021/01/02 03:44:26;;;;;;;3.67;3.47;;;;;;;1.11;86.03;99959.13;5038047;28;20559;-64
2021/01/02 03:46:52;;;;;;;3.80;3.60;;;;;;;1.09;86.13;99960.84;5045191;28;20411;-64
2021/01/02 03:49:18;;;;;;;3.55;3.35;;;;;;;1.11;86.13;99957.38;5043558;28;20053;-64
2021/01/02 03:51:45;;;;;;;3.70;3.50;;;;;;;1.11;85.91;99961.69;5049291;28;20041;-63
2021/01/02 03:54:11;;;;;;;3.70;3.50;;;;;;;1.13;85.91;99965.13;5051668;28;20466;-66
2021/01/02 03:56:37;;;;;;;3.60;3.40;;;;;;;1.15;86.01;99968.56;5051692;28;20416;-64
2021/01/02 03:59:03;;;;;;;3.97;3.78;;;;;;;1.15;86.09;99963.38;5047527;28;20455;-64
2021/01/02 04:01:29;;;;;;;3.75;3.55;;;;;;;1.16;86.00;99967.69;5050683;28;20426;-64
2021/01/02 04:03:55;;;;;;;3.17;3.08;;;;;;;1.17;86.05;99966.81;5051007;28;20049;-64
2021/01/02 04:06:24;;;;;;;3.70;3.50;;;;;;;1.17;85.81;99974.56;5050947;28;20053;-64
2021/01/02 04:08:51;;;;;;;3.13;3.03;;;;;;;1.18;85.89;99977.13;5051020;28;20090;-64
2021/01/02 04:11:17;;;;;;;3.90;3.70;;;;;;;1.19;85.95;99985.75;5051948;28;20041;-65
2021/01/02 04:13:43;;;;;;;3.53;3.33;;;;;;;1.21;85.88;99989.16;5051584;28;20049;-64
2021/01/02 04:16:10;;;;;;;3.53;3.33;;;;;;;1.22;85.81;99990.88;5050885;28;20055;-64
2021/01/02 04:18:36;;;;;;;3.22;3.08;;;;;;;1.21;85.80;99989.16;5050636;28;20047;-64
2021/01/02 04:21:02;;;;;;;3.53;3.33;;;;;;;1.21;86.05;99982.28;5050792;28;20102;-64
2021/01/02 04:23:28;;;;;;;3.45;3.25;;;;;;;1.25;86.04;99998.66;5051055;28;20049;-64
2021/01/02 04:25:55;;;;;;;3.75;3.55;;;;;;;1.23;85.71;99990.03;5051818;28;20045;-64
2021/01/02 04:28:21;;;;;;;3.47;3.28;;;;;;;1.24;85.81;99983.97;5051439;28;20049;-64
2021/01/02 04:30:47;;;;;;;3.85;3.65;;;;;;;1.28;85.76;99990.88;5050523;28;20518;-64
2021/01/02 04:33:13;;;;;;;3.92;3.72;;;;;;;1.25;85.57;99998.66;5048688;28;20044;-64
2021/01/02 04:35:39;;;;;;;3.65;3.45;;;;;;;1.21;85.61;99996.91;5050578;28;20048;-64
2021/01/02 04:38:05;;;;;;;3.47;3.28;;;;;;;1.22;85.83;99996.06;5050430;28;20048;-64
2021/01/02 04:40:31;;;;;;;3.65;3.45;;;;;;;1.19;85.92;99999.50;5051436;28;20123;-65
2021/01/02 04:42:58;;;;;;;3.67;3.47;;;;;;;1.17;85.68;99998.66;5051716;28;20423;-64
2021/01/02 04:45:25;;;;;;;3.50;3.30;;;;;;;1.19;85.80;99996.06;5054342;28;20041;-64
2021/01/02 04:47:51;;;;;;;3.85;3.65;;;;;;;1.23;85.98;99997.75;5055258;28;20536;-64
2021/01/02 04:50:18;;;;;;;3.97;3.78;;;;;;;1.25;85.69;100000.34;5054855;28;20045;-65
2021/01/02 04:52:46;;;;;;;3.88;3.67;;;;;;;1.27;85.73;100007.25;5055155;28;20049;-64
2021/01/02 04:55:17;;;;;;;3.92;3.72;;;;;;;1.28;85.77;100008.09;5054831;28;20055;-65
2021/01/02 04:57:45;;;;;;;3.58;3.38;;;;;;;1.26;85.72;100013.28;5055257;28;20045;-64
2021/01/02 05:00:13;;;;;;;3.70;3.50;;;;;;;1.27;85.78;100022.75;5055176;28;20071;-65
2021/01/02 05:02:39;;;;;;;3.67;3.47;;;;;;;1.24;85.62;100025.31;5055126;28;20128;-64
2021/01/02 05:05:07;;;;;;;3.80;3.60;;;;;;;1.27;85.97;100025.31;5036131;28;20132;-65
2021/01/02 05:07:34;;;;;;;3.45;3.25;;;;;;;1.31;86.05;100027.00;5039120;28;20558;-64
2021/01/02 05:10:01;;;;;;;3.58;3.38;;;;;;;1.33;85.82;100032.16;5042634;28;20509;-64
2021/01/02 05:12:28;;;;;;;3.78;3.58;;;;;;;1.39;85.66;100040.75;5044395;28;20053;-64
2021/01/02 05:14:59;;;;;;;3.90;3.70;;;;;;;1.36;85.56;100034.72;5037262;28;20053;-64
2021/01/02 05:17:27;;;;;;;4.10;3.90;;;;;;;1.33;85.71;100037.34;5034875;28;20052;-64
2021/01/02 05:20:05;;;;;;;3.58;3.38;;;;;;;1.27;85.81;100027.91;5034105;28;20083;-64
2021/01/02 05:22:31;;;;;;;4.07;3.88;;;;;;;1.31;85.58;100031.31;5034196;28;20055;-64
2021/01/02 05:25:09;;;;;;;3.75;3.55;;;;;;;1.31;85.61;100037.34;5033838;28;20501;-65
2021/01/02 05:27:37;;;;;;;3.78;3.58;;;;;;;1.31;85.63;100037.34;5034653;28;20050;-64
2021/01/02 05:30:17;;;;;;;3.70;3.50;;;;;;;1.27;85.62;100038.22;5034097;28;20095;-64
2021/01/02 05:33:12;;;;;;;3.95;3.75;;;;;;;1.26;85.42;100043.41;5034604;28;20053;-64
2021/01/02 05:35:41;;;;;;;3.55;3.35;;;;;;;1.25;85.64;100052.88;5034315;28;20140;-65
2021/01/02 05:38:12;;;;;;;3.80;3.60;;;;;;;1.23;85.65;100047.69;5034267;28;20136;-64
2021/01/02 05:40:39;;;;;;;4.00;3.80;;;;;;;1.20;85.43;100049.44;5032136;28;20507;-65
2021/01/02 05:43:06;;;;;;;3.70;3.50;;;;;;;1.18;85.69;100046.00;5036337;28;20053;-65
2021/01/02 05:45:32;;;;;;;3.42;3.22;;;;;;;1.12;85.49;100053.78;5046654;28;20056;-65
2021/01/02 05:48:12;;;;;;;3.75;3.55;;;;;;;1.05;85.97;100050.34;5054370;28;20047;-64
2021/01/02 05:50:46;;;;;;;3.80;3.60;;;;;;;1.08;85.71;100050.34;5053453;28;20049;-65
2021/01/02 05:53:27;;;;;;;3.83;3.63;;;;;;;1.09;85.76;100056.38;5053980;28;20127;-65
2021/01/02 05:56:04;;;;;;;3.83;3.63;;;;;;;1.07;85.52;100051.22;5053836;28;20096;-64
2021/01/02 05:58:31;;;;;;;3.53;3.33;;;;;;;1.08;85.64;100046.91;5053220;28;20438;-63
2021/01/02 06:01:09;;;;;;;3.70;3.50;;;;;;;1.08;85.82;100046.91;5052911;28;20049;-63
2021/01/02 06:03:38;;;;;;;4.05;3.85;;;;;;;1.13;85.73;100058.06;5053547;28;20059;-65
2021/01/02 06:06:06;;;;;;;3.63;3.42;;;;;;;1.13;85.68;100058.94;5053543;28;20045;-65
2021/01/02 06:08:35;;;;;;;3.33;3.15;;;;;;;1.11;85.56;100064.97;5053260;28;20480;-65
2021/01/02 06:11:05;;;;;;;3.50;3.30;;;;;;;1.06;85.42;100064.13;5053315;28;20408;-64
2021/01/02 06:13:33;;;;;;;3.30;3.15;;;;;;;1.01;85.31;100060.66;5038986;28;20046;-64
2021/01/02 06:16:00;;;;;;;3.47;3.28;;;;;;;0.94;85.60;100066.72;5033399;28;20146;-65
2021/01/02 06:18:28;;;;;;;3.60;3.40;;;;;;;0.90;85.68;100068.47;5033129;28;20507;-64
2021/01/02 06:20:56;;;;;;;3.17;3.08;;;;;;;0.87;85.81;100066.75;5032906;28;20054;-65
2021/01/02 06:23:24;;;;;;;3.55;3.35;;;;;;;0.89;85.87;100065.03;5033416;28;20054;-64
2021/01/02 06:25:52;;;;;;;3.50;3.30;;;;;;;0.90;85.61;100064.16;5033683;28;20042;-64
2021/01/02 06:28:18;;;;;;;3.60;3.40;;;;;;;0.91;85.71;100077.91;5033176;28;20132;-64
2021/01/02 06:30:44;;;;;;;3.72;3.53;;;;;;;0.91;85.69;100078.78;5033258;28;20048;-64
2021/01/02 06:33:17;;;;;;;3.80;3.60;;;;;;;0.82;85.59;100076.19;5032313;28;20049;-64
2021/01/02 06:35:44;;;;;;;3.75;3.55;;;;;;;0.79;85.40;100083.94;5032893;28;20420;-64
2021/01/02 06:38:13;;;;;;;3.70;3.50;;;;;;;0.75;85.67;100087.41;5033148;28;20073;-64
2021/01/02 06:40:42;;;;;;;3.35;3.15;;;;;;;0.71;85.64;100088.25;5032943;28;20053;-64
2021/01/02 06:43:11;;;;;;;3.70;3.50;;;;;;;0.69;85.57;100092.56;5032843;28;20056;-63
2021/01/02 06:45:56;;;;;;;3.30;3.15;;;;;;;0.70;85.62;100094.28;5032925;28;20077;-65
2021/01/02 06:48:36;;;;;;;3.60;3.40;;;;;;;0.66;85.69;100086.56;5031330;28;20512;-64
2021/01/02 06:51:24;;;;;;;3.40;3.20;;;;;;;0.69;85.77;100097.72;5032642;28;20465;-63
2021/01/02 06:53:51;;;;;;;3.58;3.38;;;;;;;0.74;85.70;100101.16;5031340;28;20140;-64
2021/01/02 06:56:17;;;;;;;3.88;3.67;;;;;;;0.75;85.64;100102.03;5032921;28;20051;-64
2021/01/02 06:58:45;;;;;;;3.25;3.13;;;;;;;0.73;85.66;100102.03;5032720;28;20075;-65
2021/01/02 07:01:39;;;;;;;3.42;3.22;;;;;;;0.74;85.78;100097.72;5032581;28;20416;-65
2021/01/02 07:04:05;;;;;;;3.38;3.17;;;;;;;0.72;85.65;100095.16;5032703;28;20075;-64
2021/01/02 07:06:36;;;;;;;3.65;3.45;;;;;;;0.73;85.70;100096.88;5031538;28;20068;-64
2021/01/02 07:09:19;;;;;;;3.08;2.97;;;;;;;0.76;85.65;100102.00;5032185;28;20056;-64
2021/01/02 07:11:46;;;;;;;3.90;3.70;;;;;;;0.75;85.44;100112.34;5032612;28;20049;-64
2021/01/02 07:14:24;;;;;;;3.67;3.47;;;;;;;0.74;85.75;100111.47;5032343;28;20082;-64
2021/01/02 07:16:55;;;;;;;3.65;3.45;;;;;;;0.77;85.70;100119.22;5032622;28;20050;-65
2021/01/02 07:19:30;;;;;;;3.60;3.40;;;;;;;0.74;85.54;100119.22;5046010;28;20107;-63
2021/01/02 07:21:58;;;;;;;3.60;3.40;;;;;;;0.75;85.66;100122.66;5052505;28;20045;-63
2021/01/02 07:24:25;;;;;;;3.50;3.30;;;;;;;0.71;85.46;100124.38;5040406;28;20396;-63
2021/01/02 07:26:57;;;;;;;3.50;3.30;;;;;;;0.67;85.34;100125.25;5040442;28;20047;-64
2021/01/02 07:29:24;;;;;;;3.50;3.30;;;;;;;0.66;85.51;100131.28;5040218;28;20049;-64
2021/01/02 07:31:50;;;;;;;3.53;3.33;;;;;;;0.67;85.66;100125.25;5042271;28;20485;-64
2021/01/02 07:34:18;;;;;;;3.45;3.25;;;;;;;0.69;85.65;100141.59;5049417;28;20106;-65
2021/01/02 07:36:44;;;;;;;3.42;3.22;;;;;;;0.69;85.42;100136.44;5051737;28;20080;-65
2021/01/02 07:39:10;;;;;;;3.65;3.45;;;;;;;0.63;85.35;100145.91;5034639;28;20055;-65
2021/01/02 07:41:38;;;;;;;3.42;3.22;;;;;;;0.61;85.52;100148.44;5038828;28;20048;-65
2021/01/02 07:44:05;;;;;;;3.65;3.45;;;;;;;0.62;85.52;100152.75;5045977;28;20045;-65
2021/01/02 07:46:32;;;;;;;3.40;3.20;;;;;;;0.63;85.35;100151.94;5046558;28;20129;-63
2021/01/02 07:48:58;;;;;;;3.83;3.63;;;;;;;0.58;85.53;100148.47;5037355;28;20481;-64
2021/01/02 07:51:25;;;;;;;3.58;3.38;;;;;;;0.62;85.40;100157.91;5031574;28;20045;-65
2021/01/02 07:53:54;;;;;;;3.63;3.42;;;;;;;0.61;85.48;100158.78;5030898;28;20049;-65
2021/01/02 07:56:34;;;;;;;3.72;3.53;;;;;;;0.64;85.46;100158.81;5032019;28;20397;-64
2021/01/02 07:59:20;;;;;;;3.58;3.38;;;;;;;0.67;85.39;100169.13;5031218;28;20053;-64
2021/01/02 08:01:49;;;;;;;3.50;3.30;;;;;;;0.71;85.33;100163.09;5031563;28;20053;-64
2021/01/02 08:04:16;;;;;;;3.72;3.53;;;;;;;0.74;85.38;100164.81;5032047;28;20052;-64
2021/01/02 08:06:47;;;;;;;3.90;3.70;;;;;;;0.76;85.47;100174.25;5031768;28;20057;-64
2021/01/02 08:09:13;;;;;;;3.50;3.30;;;;;;;0.80;85.45;100169.97;5031709;28;20052;-64
2021/01/02 08:11:57;;;;;;;3.80;3.60;;;;;;;0.79;85.24;100176.84;5031885;28;20554;-65
2021/01/02 08:14:26;;;;;;;3.60;3.40;;;;;;;0.74;85.22;100169.97;5032072;28;20049;-64
2021/01/02 08:17:04;;;;;;;3.58;3.38;;;;;;;0.76;85.27;100176.84;5046641;28;20038;-63
2021/01/02 08:19:32;;;;;;;3.40;3.20;;;;;;;0.75;85.19;100176.84;5052429;28;20134;-63
2021/01/02 08:22:00;;;;;;;3.70;3.50;;;;;;;0.68;85.25;100188.91;5053769;28;20041;-65
2021/01/02 08:24:27;;;;;;;3.90;3.70;;;;;;;0.62;85.11;100186.28;5053771;28;20045;-63
2021/01/02 08:26:53;;;;;;;3.35;3.15;;;;;;;0.62;85.32;100188.88;5054817;28;20046;-64
2021/01/02 08:29:20;;;;;;;3.33;3.15;;;;;;;0.63;85.17;100189.75;5054080;28;20128;-64
2021/01/02 08:31:51;;;;;;;3.60;3.40;;;;;;;0.66;85.42;100189.75;5053806;28;20448;-64
2021/01/02 08:34:32;;;;;;;3.80;3.60;;;;;;;0.70;85.22;100191.47;5053749;28;20135;-64
2021/01/02 08:37:07;;;;;;;3.50;3.30;;;;;;;0.77;85.52;100193.19;5053969;28;20041;-64
2021/01/02 08:39:34;;;;;;;3.70;3.50;;;;;;;0.82;85.42;100197.47;5054565;28;20041;-64
2021/01/02 08:42:00;;;;;;;3.47;3.28;;;;;;;0.84;85.49;100195.78;5054385;28;20049;-66
2021/01/02 08:44:32;;;;;;;3.60;3.40;;;;;;;0.91;85.62;100205.25;5041046;28;20049;-64
2021/01/02 08:46:59;;;;;;;;;;;;;;;1.03;85.40;100203.50;5052286;28;20136;-64
2021/01/02 08:49:32;;;;;;;3.28;3.13;;;;;;;0.99;85.37;100200.06;5037223;28;19925;-64
2021/01/02 08:52:22;;;;;;;3.78;3.58;;;;;;;1.01;85.60;100202.66;5034200;28;20050;-65
2021/01/02 08:54:50;;;;;;;3.80;3.60;;;;;;;1.09;85.66;100204.38;5039446;28;20053;-65
2021/01/02 08:57:24;;;;;;;3.42;3.22;;;;;;;1.12;85.57;100208.69;5042673;28;20046;-65
2021/01/02 08:59:50;;;;;;;3.70;3.50;;;;;;;1.13;85.31;100210.41;5049540;28;20041;-65
2021/01/02 09:02:17;;;;;;;3.75;3.55;;;;;;;1.15;85.42;100206.09;5049625;28;20595;-66
2021/01/02 09:04:58;;;;;;;3.53;3.33;;;;;;;1.19;85.34;100207.81;5052472;28;20041;-64
2021/01/02 09:07:24;;;;;;;3.35;3.15;;;;;;;1.20;85.16;100209.53;5053159;28;20049;-66
2021/01/02 09:09:50;;;;;;;3.50;3.30;;;;;;;1.09;85.16;100213.84;5045175;28;20055;-64
2021/01/02 09:12:19;;;;;;;4.00;3.80;;;;;;;1.10;85.78;100215.56;5034911;28;20042;-65
2021/01/02 09:14:50;;;;;;;3.55;3.35;;;;;;;1.18;85.56;100217.28;5041885;28;20041;-64
2021/01/02 09:17:17;;;;;;;3.63;3.42;;;;;;;1.26;85.45;100206.94;5047522;28;20037;-65
2021/01/02 09:19:43;;;;;;;3.58;3.38;;;;;;;1.31;85.43;100205.22;5050693;28;20045;-65
2021/01/02 09:22:16;;;;;;;3.50;3.30;;;;;;;1.27;85.34;100200.94;5053230;28;20496;-65
2021/01/02 09:24:42;;;;;;;3.47;3.28;;;;;;;1.28;85.30;100206.94;5051798;28;20053;-66
2021/01/02 09:27:08;;;;;;;3.65;3.45;;;;;;;1.29;85.49;100214.69;5048415;28;20076;-66
2021/01/02 09:29:39;;;;;;;3.65;3.45;;;;;;;1.36;85.48;100210.38;5045709;28;20076;-65
2021/01/02 09:32:10;;;;;;;3.70;3.50;;;;;;;1.35;85.39;100212.09;5050384;28;20048;-64
2021/01/02 09:34:37;;;;;;;3.92;3.72;;;;;;;1.37;85.43;100207.78;5048287;28;20117;-65
2021/01/02 09:37:03;;;;;;;4.03;3.83;;;;;;;1.38;85.32;100217.25;5052308;28;20138;-65
2021/01/02 09:39:30;;;;;;;3.22;3.10;;;;;;;1.43;85.35;100218.09;5052604;28;20124;-64
2021/01/02 09:41:56;;;;;;;3.67;3.47;;;;;;;1.47;85.56;100211.22;5052866;28;20476;-67
2021/01/02 09:44:22;;;;;;;3.38;3.17;;;;;;;1.44;85.33;100204.31;5042063;28;20129;-65
2021/01/02 09:46:51;;;;;;;3.50;3.30;;;;;;;1.52;85.51;100212.94;5036129;28;20041;-65
2021/01/02 09:49:17;;;;;;;3.78;3.58;;;;;;;1.56;85.33;100208.59;5033029;28;20050;-65
2021/01/02 09:51:43;;;;;;;3.45;3.25;;;;;;;1.58;85.17;100206.00;5037229;28;20045;-66
2021/01/02 09:54:09;;;;;;;3.53;3.33;;;;;;;1.57;85.39;100209.47;5032574;28;20049;-66
2021/01/02 09:56:43;;;;;;;3.38;3.17;;;;;;;1.59;85.24;100213.75;5049154;28;20124;-66
2021/01/02 09:59:10;;;;;;;3.90;3.70;;;;;;;1.58;85.19;100211.19;5052592;28;20045;-66
2021/01/02 10:01:36;;;;;;;3.70;3.50;;;;;;;1.51;85.36;100213.78;5052511;28;20056;-66
2021/01/02 10:04:02;;;;;;;3.80;3.60;;;;;;;1.48;85.36;100208.63;5051153;28;20128;-66
2021/01/02 10:06:29;;;;;;;3.90;3.70;;;;;;;1.53;85.34;100209.47;5049564;28;20438;-65
2021/01/02 10:08:55;;;;;;;3.80;3.60;;;;;;;1.56;85.24;100197.41;5047403;28;20408;-66
2021/01/02 10:11:21;;;;;;;3.67;3.47;;;;;;;1.59;85.21;100207.72;5051713;28;20493;-65
2021/01/02 10:13:47;;;;;;;3.15;3.05;;;;;;;1.62;85.27;100194.81;5051521;28;20053;-65
2021/01/02 10:16:18;;;;;;;3.80;3.60;;;;;;;1.59;85.44;100193.09;5051915;28;20048;-66
2021/01/02 10:18:44;;;;;;;4.07;3.88;;;;;;;1.69;85.39;100181.00;5051028;28;20098;-67
2021/01/02 10:21:12;;;;;;;3.53;3.33;;;;;;;1.77;85.25;100177.53;5051586;28;20053;-66
2021/01/02 10:23:38;;;;;;;4.00;3.80;;;;;;;1.87;85.23;100162.81;5050953;28;20044;-65
2021/01/02 10:26:04;;;;;;;3.83;3.63;;;;;;;1.98;85.18;100161.06;5051616;28;20132;-64
2021/01/02 10:28:30;;;;;;;3.92;3.72;;;;;;;1.98;85.20;100160.22;5054415;28;20044;-65
2021/01/02 10:30:56;;;;;;;4.10;3.90;;;;;;;1.97;85.15;100169.69;5057412;28;20472;-65
2021/01/02 10:33:23;;;;;;;3.90;3.70;;;;;;;1.92;85.26;100170.59;5049950;28;20075;-64
2021/01/02 10:35:49;;;;;;;3.55;3.35;;;;;;;1.86;85.20;100175.75;5048103;28;20136;-65
2021/01/02 10:38:15;;;;;;;3.50;3.30;;;;;;;1.79;85.25;100183.53;5050700;28;20051;-64
2021/01/02 10:40:41;;;;;;;3.65;3.45;;;;;;;1.71;84.92;100187.03;5050188;28;20132;-64
2021/01/02 10:43:07;;;;;;;3.88;3.67;;;;;;;1.74;85.42;100181.84;5050919;28;20037;-65
2021/01/02 10:45:33;;;;;;;3.35;3.15;;;;;;;1.80;85.22;100179.22;5050823;28;20045;-65
2021/01/02 10:47:59;;;;;;;3.60;3.40;;;;;;;1.81;85.45;100189.56;5050823;28;20489;-64
2021/01/02 10:50:26;;;;;;;3.88;3.67;;;;;;;1.81;85.41;100183.53;5050887;28;20477;-65
2021/01/02 10:52:52;;;;;;;3.50;3.30;;;;;;;1.89;85.54;100186.13;5050701;28;20043;-65
2021/01/02 10:55:18;;;;;;;4.10;3.90;;;;;;;1.93;85.27;100180.91;5049990;28;20182;-65
2021/01/02 10:57:45;;;;;;;3.28;3.13;;;;;;;1.96;85.22;100178.31;5050770;28;20127;-65
2021/01/02 11:00:13;;;;;;;3.53;3.33;;;;;;;2.04;85.39;100171.38;5051129;28;20087;-65
2021/01/02 11:02:39;;;;;;;3.60;3.40;;;;;;;2.09;85.12;100174.81;5051114;28;20179;-65
2021/01/02 11:05:06;;;;;;;3.67;3.47;;;;;;;2.12;85.16;100171.34;5050447;28;20435;-66
2021/01/02 11:07:33;;;;;;;3.40;3.20;;;;;;;2.14;85.17;100173.06;5049394;28;20128;-66
2021/01/02 11:09:59;;;;;;;3.80;3.60;;;;;;;2.13;85.14;100179.09;5047574;28;20485;-63
2021/01/02 11:12:27;;;;;;;3.80;3.60;;;;;;;2.13;85.28;100176.50;5050283;28;20102;-65
2021/01/02 11:14:53;;;;;;;3.58;3.38;;;;;;;2.19;85.31;100179.91;5049733;28;20048;-65
2021/01/02 11:17:20;;;;;;;3.88;3.67;;;;;;;2.16;85.11;100180.81;5050444;28;20036;-63
2021/01/02 11:19:46;;;;;;;3.28;3.10;;;;;;;2.14;85.09;100185.97;5050211;28;20044;-64
2021/01/02 11:22:13;;;;;;;3.60;3.40;;;;;;;2.20;85.16;100179.06;5050123;28;20263;-63
2021/01/02 11:24:42;;;;;;;4.10;3.90;;;;;;;2.26;85.10;100173.84;5050276;28;20048;-64
2021/01/02 11:27:08;;;;;;;3.90;3.70;;;;;;;2.28;85.28;100185.88;5050648;28;20055;-64
2021/01/02 11:29:35;;;;;;;3.67;3.47;;;;;;;2.28;85.02;100191.06;5049693;28;20069;-64
2021/01/02 11:32:05;;;;;;;3.42;3.22;;;;;;;2.24;84.99;100185.91;5050605;28;20081;-64
2021/01/02 11:34:31;;;;;;;3.95;3.75;;;;;;;2.25;85.72;100188.50;5049504;28;20045;-64
2021/01/02 11:36:59;;;;;;;4.00;3.80;;;;;;;2.25;85.05;100179.88;5050096;28;20140;-64
2021/01/02 11:39:26;;;;;;;3.80;3.60;;;;;;;2.25;85.04;100185.06;5048520;28;20124;-64
2021/01/02 11:41:53;;;;;;;3.80;3.60;;;;;;;2.29;85.30;100186.75;5050629;28;20047;-63
2021/01/02 11:44:22;;;;;;;3.85;3.65;;;;;;;2.29;85.33;100191.91;5042034;28;20124;-64
2021/01/02 11:46:50;;;;;;;3.70;3.50;;;;;;;2.34;85.31;100180.69;5040499;28;20043;-64
2021/01/02 11:49:18;;;;;;;3.78;3.58;;;;;;;2.41;85.23;100176.34;5044746;28;20049;-64
2021/01/02 11:51:48;;;;;;;3.47;3.28;;;;;;;2.39;85.05;100175.50;5045477;28;20391;-63